Terminal Aerodrome Forecast
Issued by NWS Sioux Falls, SD

Home | Current Version | Previous Version | Graphics & Text | Print | Product List | Glossary Off
Versions: 1 2 3 4 5 6 7 8 9 10 11 12 13

000
FTUS43 KFSD 050520
TAFFSD
TAF
KFSD 050520Z 0506/0606 12006KT P6SM BKN250
     FM051500 14009KT P6SM SCT035 BKN200
     FM052000 16011KT P6SM SCT040
     FM052300 15008KT P6SM SCT040=

USA.gov is the U.S. government's official web portal to all federal, state and local government web resources and services.